キエフ/ボリースピリ の空港の天気 - METARとTAF

ボリースピリ国際空港(キエフ) ( UKBB / KBP ) - ウクライナ ボリスピリ (キエフ近郊)
飛行場実況気象(Metar)
観測時間08/17 14:30 EEST (08/17 11:30 UTC)
風向・風速北北西 7m/s
視程10km以上
天気現象
全天を覆う雲 雲底高度 550m
気温18℃
湿度68%
気圧1012hPa
METARUKBB 171130Z 33007MPS 9999 OVC018 18/12 Q1012 R88/D NOSIG
過去の天気等 Google飛行場航空写真 Wunderground天気予報

過去48時間のMETAR

飛行場予報(TAF)
発表時間: 8/17 14:02 EEST (8/17 11:02 UTC)
予報対象時間: 17日15時 EEST ~ 18日15時 EEST
風向・風速北北西 5m/s 瞬間風速 11m/s
視程10km以上
全天の8割程度の雲 雲底高度 370m
17日19時 EEST ~ 17日21時 EEST に徐々に
風向・風速西北西 4m/s
17日21時 EEST ~ 18日8時 EEST に一時的に
視程1200m
天気現象もや
全天を覆う雲 雲底高度 120m
TAF UKBB 171102Z 1712/1812 34005G11MPS 9999 BKN012
BECMG 1716/1718 30004MPS
TEMPO 1718/1805 1200 BR OVC004